createdAt,value
2022-12-19T00:00:48.914Z,84.35
2022-12-19T00:03:29.465Z,84.35
2022-12-19T00:06:02.268Z,84.15
2022-12-19T00:08:31.839Z,83.58
2022-12-19T00:11:03.270Z,83.84
2022-12-19T00:13:40.310Z,84.76
2022-12-19T00:16:15.245Z,84.13
2022-12-19T00:18:48.711Z,84.69
2022-12-19T00:21:19.891Z,84.93
2022-12-19T00:23:49.843Z,84.09
2022-12-19T00:26:21.127Z,83.89
2022-12-19T00:28:53.217Z,84.55
2022-12-19T00:31:25.145Z,84.06
2022-12-19T00:33:55.054Z,83.83
2022-12-19T00:36:26.235Z,83.77
2022-12-19T00:38:57.644Z,84.30
2022-12-19T00:41:29.605Z,84.57
2022-12-19T00:44:00.951Z,84.44
2022-12-19T00:46:32.793Z,84.41
2022-12-19T00:49:03.169Z,85.10
2022-12-19T00:51:34.899Z,84.42
2022-12-19T00:54:06.726Z,84.55
2022-12-19T00:56:38.430Z,84.58
2022-12-19T00:59:11.300Z,84.75
2022-12-19T01:01:43.069Z,84.52
2022-12-19T01:04:28.148Z,84.46
2022-12-19T01:06:58.052Z,84.07
2022-12-19T01:09:36.050Z,84.59
2022-12-19T01:12:24.862Z,84.46
2022-12-19T01:15:03.737Z,83.93
2022-12-19T01:17:43.589Z,84.21
2022-12-19T01:20:16.095Z,84.01
2022-12-19T01:22:47.087Z,84.40
2022-12-19T01:25:17.238Z,84.40
2022-12-19T01:27:46.553Z,83.86
2022-12-19T01:30:16.209Z,84.27
2022-12-19T01:32:47.535Z,84.35
2022-12-19T01:35:21.818Z,84.65
2022-12-19T01:37:52.268Z,84.97
2022-12-19T01:40:31.569Z,84.34
2022-12-19T01:43:02.270Z,84.32
2022-12-19T01:45:35.395Z,84.00
2022-12-19T01:48:15.650Z,84.06
2022-12-19T01:51:01.412Z,84.05
2022-12-19T01:53:48.245Z,84.10
2022-12-19T01:56:23.875Z,84.79
2022-12-19T01:58:58.950Z,84.42
2022-12-19T02:01:49.548Z,84.76
2022-12-19T02:04:32.152Z,84.42
2022-12-19T02:07:15.874Z,84.92
2022-12-19T02:09:49.637Z,84.65
2022-12-19T02:12:28.066Z,84.44
2022-12-19T02:15:02.788Z,84.72
2022-12-19T02:17:41.925Z,84.34
2022-12-19T02:20:45.639Z,84.76
2022-12-19T02:23:41.020Z,84.86
2022-12-19T02:26:31.844Z,84.67
2022-12-19T02:29:22.113Z,84.45
2022-12-19T02:31:59.966Z,83.96
2022-12-19T02:34:40.053Z,83.97
2022-12-19T02:37:20.825Z,84.39
2022-12-19T02:39:55.725Z,84.14
2022-12-19T02:42:30.574Z,84.40
2022-12-19T02:45:06.331Z,84.23
2022-12-19T02:47:38.707Z,84.93
2022-12-19T02:50:10.394Z,84.44
2022-12-19T02:52:46.937Z,84.39
2022-12-19T02:55:21.766Z,84.62
2022-12-19T02:58:02.243Z,84.21
2022-12-19T03:00:34.358Z,84.35
2022-12-19T03:03:11.274Z,84.73
2022-12-19T03:05:48.223Z,84.66
2022-12-19T03:08:24.915Z,85.07
2022-12-19T03:11:02.760Z,84.32
2022-12-19T03:13:36.675Z,84.73
2022-12-19T03:16:09.666Z,85.06
2022-12-19T03:18:40.831Z,84.61
2022-12-19T03:21:16.860Z,84.61
2022-12-19T03:23:46.274Z,84.77
2022-12-19T03:26:19.862Z,84.52
2022-12-19T03:28:53.974Z,85.58
2022-12-19T03:36:25.343Z,85.20
2022-12-19T03:38:57.015Z,85.78
2022-12-19T03:41:42.047Z,85.77
2022-12-19T03:44:12.935Z,85.33
2022-12-19T03:46:47.174Z,85.37
2022-12-19T03:49:16.732Z,85.42
2022-12-19T03:51:59.391Z,85.07
2022-12-19T03:54:33.386Z,85.34
2022-12-19T03:57:08.707Z,85.12
2022-12-19T03:59:44.438Z,85.26
2022-12-19T04:02:17.223Z,85.37
2022-12-19T04:04:48.831Z,85.27
2022-12-19T04:07:21.370Z,85.16
2022-12-19T04:09:52.098Z,85.41
2022-12-19T04:12:26.651Z,85.05
2022-12-19T04:14:56.065Z,85.35
2022-12-19T04:17:35.520Z,85.26
2022-12-19T04:20:07.857Z,85.12
2022-12-19T04:22:43.905Z,85.01
2022-12-19T04:25:17.559Z,84.81
2022-12-19T04:27:52.495Z,85.38
2022-12-19T04:30:22.212Z,84.52
2022-12-19T04:32:52.435Z,85.40
2022-12-19T04:35:21.832Z,85.09
2022-12-19T04:37:53.922Z,85.67
2022-12-19T04:40:23.268Z,85.40
2022-12-19T04:42:52.949Z,84.58
2022-12-19T04:45:22.551Z,85.22
2022-12-19T04:47:52.195Z,84.53
2022-12-19T04:50:21.734Z,84.42
2022-12-19T04:52:57.003Z,85.41
2022-12-19T04:55:26.705Z,84.73
2022-12-19T04:57:56.391Z,85.02
2022-12-19T05:00:25.786Z,85.00
2022-12-19T05:02:55.785Z,84.76
2022-12-19T05:05:25.630Z,84.58
2022-12-19T05:08:00.631Z,84.95
2022-12-19T05:10:31.249Z,84.92
2022-12-19T05:13:00.854Z,85.03
2022-12-19T05:15:30.115Z,85.05
2022-12-19T05:17:59.928Z,84.86
2022-12-19T05:20:29.262Z,85.37
2022-12-19T05:23:04.352Z,85.17
2022-12-19T05:25:35.148Z,84.93
2022-12-19T05:28:06.206Z,84.94
2022-12-19T05:30:35.608Z,85.11
2022-12-19T05:33:05.178Z,84.70
2022-12-19T05:35:35.619Z,84.62
2022-12-19T05:38:06.828Z,84.62
2022-12-19T05:40:36.221Z,84.57
2022-12-19T05:43:06.192Z,84.99
2022-12-19T05:45:35.760Z,84.53
2022-12-19T05:48:06.051Z,84.60
2022-12-19T05:50:39.391Z,84.99
2022-12-19T05:53:13.498Z,84.94
2022-12-19T05:55:43.209Z,84.56
2022-12-19T05:58:13.508Z,84.66
2022-12-19T06:00:43.402Z,84.80
2022-12-19T06:03:13.527Z,85.00
2022-12-19T06:05:43.292Z,84.76
2022-12-19T06:08:15.090Z,84.64
2022-12-19T06:10:44.311Z,84.66
2022-12-19T06:13:13.799Z,85.16
2022-12-19T06:15:43.118Z,84.73
2022-12-19T06:18:12.788Z,84.76
2022-12-19T06:20:42.035Z,84.88
2022-12-19T06:23:13.140Z,84.50
2022-12-19T06:25:42.397Z,85.25
2022-12-19T06:28:11.969Z,84.22
2022-12-19T06:30:41.157Z,84.23
2022-12-19T06:33:10.711Z,84.47
2022-12-19T06:35:39.947Z,85.00
2022-12-19T06:38:09.512Z,84.35
2022-12-19T06:41:01.167Z,84.44
2022-12-19T06:43:30.998Z,84.54
2022-12-19T06:46:00.387Z,84.09
2022-12-19T06:48:30.457Z,84.22
2022-12-19T06:51:00.120Z,84.18
2022-12-19T06:53:30.267Z,83.84
2022-12-19T06:56:01.801Z,83.98
2022-12-19T06:58:31.399Z,83.05
2022-12-19T07:01:01.624Z,83.44
2022-12-19T07:03:37.016Z,83.05
2022-12-19T07:06:07.083Z,83.50
2022-12-19T07:08:36.676Z,83.22
2022-12-19T07:11:07.664Z,82.82
2022-12-19T07:13:37.235Z,82.84
2022-12-19T07:16:08.485Z,82.40
2022-12-19T07:18:41.498Z,82.59
2022-12-19T07:21:12.829Z,82.66
2022-12-19T07:23:43.196Z,82.42
2022-12-19T07:26:14.090Z,81.65
2022-12-19T07:28:44.694Z,81.94
2022-12-19T07:31:14.211Z,81.51
2022-12-19T07:33:43.939Z,81.16
2022-12-19T07:36:13.490Z,81.70
2022-12-19T07:38:43.132Z,81.31
2022-12-19T07:41:13.827Z,81.24
2022-12-19T07:43:43.476Z,80.90
2022-12-19T07:46:12.825Z,80.76
2022-12-19T07:48:42.707Z,80.70
2022-12-19T07:51:12.007Z,80.89
2022-12-19T07:53:41.777Z,80.19
2022-12-19T07:56:12.549Z,80.10
2022-12-19T07:58:42.878Z,80.00
2022-12-19T08:01:14.182Z,79.79
2022-12-19T08:03:44.143Z,78.91
2022-12-19T08:06:13.614Z,79.52
2022-12-19T08:08:43.339Z,79.07
2022-12-19T08:11:17.249Z,78.59
2022-12-19T08:13:47.263Z,78.90
2022-12-19T08:16:16.864Z,79.09
2022-12-19T08:18:47.930Z,79.30
2022-12-19T08:21:17.364Z,78.52
2022-12-19T08:23:47.096Z,78.49
2022-12-19T08:26:25.532Z,78.38
2022-12-19T08:28:56.532Z,78.52
2022-12-19T08:31:28.382Z,77.58
2022-12-19T08:33:59.196Z,77.36
2022-12-19T08:36:29.003Z,77.27
2022-12-19T08:38:59.144Z,77.27
2022-12-19T08:41:30.563Z,76.70
2022-12-19T08:44:00.991Z,76.87
2022-12-19T08:46:30.735Z,76.90
2022-12-19T08:49:01.135Z,76.71
2022-12-19T08:51:30.372Z,76.51
2022-12-19T08:54:01.070Z,75.71
2022-12-19T08:56:32.890Z,75.37
2022-12-19T08:59:03.199Z,75.56
2022-12-19T09:01:32.561Z,74.93
2022-12-19T09:05:58.507Z,74.18
2022-12-19T09:06:51.668Z,74.19
2022-12-19T09:09:21.345Z,73.84
2022-12-19T09:11:52.064Z,73.59
2022-12-19T09:14:21.807Z,73.24
2022-12-19T09:16:51.276Z,72.69
2022-12-19T09:19:21.016Z,72.70
2022-12-19T09:21:50.436Z,72.18
2022-12-19T09:24:20.517Z,71.71
2022-12-19T09:26:51.363Z,71.65
2022-12-19T09:29:21.969Z,71.68
2022-12-19T09:31:56.378Z,71.04
2022-12-19T09:34:33.013Z,70.49
2022-12-19T09:37:08.778Z,70.36
2022-12-19T09:39:38.544Z,70.89
2022-12-19T09:42:29.814Z,70.50
2022-12-19T09:45:14.648Z,70.63
2022-12-19T09:48:02.821Z,69.57
2022-12-19T09:50:40.707Z,69.35
2022-12-19T09:53:17.355Z,67.61
2022-12-19T09:55:48.088Z,66.90
2022-12-19T09:58:33.259Z,65.74
2022-12-19T10:01:07.638Z,63.34
2022-12-19T10:03:41.268Z,63.73
2022-12-19T10:07:16.110Z,63.04
2022-12-19T10:11:16.341Z,66.06
2022-12-19T10:12:44.837Z,65.46
2022-12-19T10:15:21.228Z,60.54
2022-12-19T10:18:06.270Z,60.28
2022-12-19T10:20:38.828Z,57.60
2022-12-19T10:23:29.179Z,57.88
2022-12-19T10:26:05.762Z,56.38
2022-12-19T10:28:50.989Z,57.38
2022-12-19T10:31:29.135Z,57.13
2022-12-19T10:34:03.813Z,57.67
2022-12-19T10:37:12.358Z,59.62
2022-12-19T10:39:35.376Z,58.15
2022-12-19T10:42:12.594Z,57.51
2022-12-19T10:44:44.476Z,56.85
2022-12-19T10:47:18.533Z,58.02
2022-12-19T10:49:49.420Z,58.40
2022-12-19T10:52:51.307Z,59.42
2022-12-19T10:55:45.726Z,58.59
2022-12-19T10:58:21.746Z,57.92
2022-12-19T11:01:07.300Z,54.20
2022-12-19T11:03:38.992Z,54.88
2022-12-19T11:06:43.465Z,56.58
2022-12-19T11:09:25.137Z,52.21
2022-12-19T11:16:10.502Z,51.70
2022-12-19T11:19:27.483Z,51.38
2022-12-19T11:23:23.418Z,51.21
2022-12-19T11:29:32.716Z,52.05
2022-12-19T11:30:26.149Z,54.16
2022-12-19T11:30:45.316Z,54.22
2022-12-19T11:31:55.646Z,56.32
2022-12-19T11:32:41.316Z,54.61
2022-12-19T11:35:20.988Z,55.30
2022-12-19T11:37:59.647Z,57.97
2022-12-19T11:40:35.262Z,58.35
2022-12-19T11:46:09.147Z,62.17
2022-12-19T11:48:42.362Z,61.62
2022-12-19T11:51:22.455Z,63.12
2022-12-19T11:54:03.742Z,63.31
2022-12-19T11:56:33.693Z,64.90
2022-12-19T11:59:13.178Z,65.32
2022-12-19T12:02:05.245Z,67.15
2022-12-19T12:05:06.408Z,66.58
2022-12-19T12:08:54.297Z,66.77
2022-12-19T12:16:39.953Z,68.05
2022-12-19T12:24:58.850Z,67.37
2022-12-19T12:29:42.492Z,67.50
2022-12-19T12:31:18.798Z,68.65
2022-12-19T12:31:21.673Z,69.20
2022-12-19T12:31:38.740Z,69.86
2022-12-19T12:31:51.533Z,69.49
2022-12-19T12:35:38.459Z,70.76
2022-12-19T12:37:17.443Z,70.43
2022-12-19T12:38:23.531Z,70.62
2022-12-19T12:41:19.522Z,70.41
2022-12-19T12:44:02.019Z,70.95
2022-12-19T12:46:38.428Z,70.91
2022-12-19T12:49:16.918Z,70.83
2022-12-19T12:51:47.294Z,71.25
2022-12-19T12:54:18.380Z,70.51
2022-12-19T12:56:49.837Z,70.57
2022-12-19T12:59:25.079Z,71.53
2022-12-19T13:01:56.864Z,71.33
2022-12-19T13:04:34.195Z,71.06
2022-12-19T13:07:21.515Z,71.77
2022-12-19T13:09:56.446Z,71.55
2022-12-19T13:12:47.057Z,71.69
2022-12-19T13:15:44.240Z,72.03
2022-12-19T13:18:40.235Z,72.02
2022-12-19T13:21:11.061Z,72.38
2022-12-19T13:24:16.056Z,72.48
2022-12-19T13:26:49.528Z,72.17
2022-12-19T13:29:31.500Z,72.58
2022-12-19T13:32:16.142Z,72.47
2022-12-19T13:34:58.248Z,72.41
2022-12-19T13:40:02.077Z,72.47
2022-12-19T13:40:53.289Z,72.36
2022-12-19T13:43:43.492Z,72.35
2022-12-19T13:46:27.696Z,72.05
2022-12-19T13:49:02.237Z,72.00
2022-12-19T13:51:43.637Z,71.93
2022-12-19T13:54:28.513Z,71.87
2022-12-19T13:57:03.846Z,71.85
2022-12-19T13:59:54.403Z,72.18
2022-12-19T14:02:43.403Z,72.44
2022-12-19T14:06:15.081Z,71.64
2022-12-19T14:08:19.218Z,72.03
2022-12-19T14:11:35.881Z,71.82
2022-12-19T14:15:12.411Z,71.61
2022-12-19T14:17:49.871Z,71.90
2022-12-19T14:22:02.017Z,71.71
2022-12-19T14:23:12.590Z,71.81
2022-12-19T14:28:16.858Z,71.29
2022-12-19T14:28:42.551Z,71.30
2022-12-19T14:31:15.613Z,71.59
2022-12-19T14:36:41.761Z,71.70
2022-12-19T14:39:23.899Z,71.27
2022-12-19T14:42:48.310Z,71.95
2022-12-19T14:52:25.373Z,71.91
2022-12-19T14:52:25.644Z,71.67
2022-12-19T14:54:22.463Z,71.44
2022-12-19T14:57:25.423Z,71.91
2022-12-19T15:01:09.715Z,71.90
2022-12-19T15:03:24.903Z,71.86
2022-12-19T15:06:31.529Z,71.35
2022-12-19T15:09:17.501Z,71.54
2022-12-19T15:14:55.046Z,71.81
2022-12-19T15:15:19.445Z,71.50
2022-12-19T15:17:50.117Z,72.25
2022-12-19T15:20:20.509Z,71.91
2022-12-19T15:22:50.057Z,72.16
2022-12-19T15:26:01.316Z,72.28
2022-12-19T15:28:15.549Z,71.51
2022-12-19T15:30:49.642Z,71.71
2022-12-19T15:33:19.203Z,72.07
2022-12-19T15:35:48.942Z,72.24
2022-12-19T15:38:18.523Z,71.91
2022-12-19T15:40:50.166Z,71.62
2022-12-19T15:44:01.313Z,72.04
2022-12-19T15:46:14.738Z,72.01
2022-12-19T15:48:49.204Z,71.98
2022-12-19T15:51:19.070Z,71.65
2022-12-19T15:53:48.419Z,72.16
2022-12-19T15:56:28.522Z,72.01
2022-12-19T15:59:01.938Z,72.17
2022-12-19T16:01:33.130Z,72.23
2022-12-19T16:04:03.863Z,72.03
2022-12-19T16:06:33.744Z,72.25
2022-12-19T16:09:03.428Z,72.19
2022-12-19T16:11:34.922Z,71.77
2022-12-19T16:14:04.370Z,72.37
2022-12-19T16:16:34.055Z,72.40
2022-12-19T16:19:03.415Z,72.08
2022-12-19T16:21:34.525Z,72.19
2022-12-19T16:24:04.009Z,72.70
2022-12-19T16:26:38.751Z,72.12
2022-12-19T16:29:18.134Z,72.42
2022-12-19T16:31:47.865Z,72.43
2022-12-19T16:34:20.549Z,72.35
2022-12-19T16:36:50.894Z,72.49
2022-12-19T16:39:20.732Z,72.47
2022-12-19T16:41:52.285Z,72.18
2022-12-19T16:44:23.798Z,72.04
2022-12-19T16:46:53.754Z,72.16
2022-12-19T16:49:24.034Z,72.18
2022-12-19T16:51:54.138Z,72.05
2022-12-19T16:54:23.413Z,72.22
2022-12-19T16:56:55.305Z,71.77
2022-12-19T16:59:28.686Z,71.97
2022-12-19T17:01:59.174Z,71.77
2022-12-19T17:04:30.161Z,71.85
2022-12-19T17:07:00.269Z,72.15
2022-12-19T17:09:29.656Z,72.17
2022-12-19T17:12:02.492Z,72.29
2022-12-19T17:14:33.785Z,71.72
2022-12-19T17:17:03.556Z,72.26
2022-12-19T17:19:37.425Z,71.95
2022-12-19T17:22:14.192Z,71.90
2022-12-19T17:24:44.691Z,72.16
2022-12-19T17:27:17.503Z,72.45
2022-12-19T17:29:47.300Z,72.54
2022-12-19T17:32:23.572Z,72.59
2022-12-19T17:34:54.429Z,72.31
2022-12-19T17:37:24.139Z,72.50
2022-12-19T17:39:53.478Z,72.34
2022-12-19T17:42:28.738Z,72.01
2022-12-19T17:45:00.027Z,72.55
2022-12-19T17:47:31.971Z,72.77
2022-12-19T17:50:01.466Z,73.12
2022-12-19T17:52:35.696Z,72.62
2022-12-19T17:55:16.465Z,73.22
2022-12-19T17:57:47.702Z,73.22
2022-12-19T18:00:19.219Z,72.56
2022-12-19T18:02:51.307Z,72.86
2022-12-19T18:05:24.137Z,73.18
2022-12-19T18:07:55.030Z,73.44
2022-12-19T18:10:26.086Z,73.68
2022-12-19T18:12:57.841Z,73.84
2022-12-19T18:15:27.304Z,73.55
2022-12-19T18:17:56.995Z,73.66
2022-12-19T18:20:31.856Z,73.97
2022-12-19T18:23:02.016Z,73.92
2022-12-19T18:25:35.257Z,74.02
2022-12-19T18:28:06.761Z,73.99
2022-12-19T18:30:37.238Z,74.65
2022-12-19T18:33:08.055Z,75.23
2022-12-19T18:35:39.630Z,75.65
2022-12-19T18:38:13.671Z,76.09
2022-12-19T18:40:43.120Z,76.65
2022-12-19T18:43:14.925Z,76.52
2022-12-19T18:45:47.416Z,77.34
2022-12-19T18:48:22.037Z,77.36
2022-12-19T18:50:51.471Z,77.27
2022-12-19T18:53:23.250Z,77.02
2022-12-19T18:55:54.041Z,76.52
2022-12-19T18:58:25.384Z,76.54
2022-12-19T19:00:59.332Z,76.94
2022-12-19T19:03:31.693Z,77.61
2022-12-19T19:06:01.723Z,77.72
2022-12-19T19:08:34.124Z,77.73
2022-12-19T19:11:25.060Z,77.88
2022-12-19T19:13:56.187Z,78.19
2022-12-19T19:16:28.149Z,78.51
2022-12-19T19:18:59.981Z,78.89
2022-12-19T19:21:33.653Z,79.50
2022-12-19T19:24:08.839Z,80.31
2022-12-19T19:26:38.117Z,80.45
2022-12-19T19:29:09.513Z,80.45
2022-12-19T19:31:41.690Z,80.72
2022-12-19T19:34:16.932Z,82.12
2022-12-19T19:36:49.715Z,81.52
2022-12-19T19:39:20.099Z,82.53
2022-12-19T19:41:49.554Z,83.27
2022-12-19T19:44:20.520Z,82.83
2022-12-19T19:46:50.114Z,83.25
2022-12-19T19:49:21.143Z,83.24
2022-12-19T19:51:50.424Z,82.64
2022-12-19T19:54:20.266Z,83.30
2022-12-19T19:56:49.930Z,83.99
2022-12-19T19:59:21.510Z,83.81
2022-12-19T20:01:54.342Z,83.10
2022-12-19T20:04:24.339Z,83.54
2022-12-19T20:06:53.892Z,83.97
2022-12-19T20:09:23.512Z,84.90
2022-12-19T20:11:52.860Z,85.00
2022-12-19T20:14:24.346Z,84.77
2022-12-19T20:16:53.829Z,85.53
2022-12-19T20:19:23.660Z,85.58
2022-12-19T20:21:53.213Z,85.99
2022-12-19T20:24:22.979Z,85.02
2022-12-19T20:26:52.293Z,85.55
2022-12-19T20:29:23.438Z,85.98
2022-12-19T20:31:53.442Z,85.52
2022-12-19T20:34:23.052Z,86.18
2022-12-19T20:36:52.557Z,85.54
2022-12-19T20:39:23.109Z,86.17
2022-12-19T20:41:53.507Z,86.40
2022-12-19T20:44:24.856Z,87.38
2022-12-19T20:46:54.469Z,87.57
2022-12-19T20:49:25.445Z,86.90
2022-12-19T20:51:54.914Z,87.29
2022-12-19T20:54:24.703Z,88.16
2022-12-19T20:56:54.054Z,88.25
2022-12-19T20:59:25.031Z,87.94
2022-12-19T21:01:55.425Z,88.24
2022-12-19T21:04:25.201Z,87.99
2022-12-19T21:06:54.954Z,87.40
2022-12-19T21:09:24.584Z,87.92
2022-12-19T21:11:53.959Z,87.71
2022-12-19T21:14:25.160Z,88.33
2022-12-19T21:16:54.420Z,87.55
2022-12-19T21:19:24.085Z,87.41
2022-12-19T21:21:53.613Z,88.14
2022-12-19T21:24:23.248Z,87.64
2022-12-19T21:26:57.706Z,88.69
2022-12-19T21:29:29.213Z,88.03
2022-12-19T21:31:58.528Z,88.32
2022-12-19T21:34:28.528Z,88.53
2022-12-19T21:36:58.103Z,88.30
2022-12-19T21:39:27.638Z,88.81
2022-12-19T21:41:56.832Z,89.55
2022-12-19T21:44:27.873Z,89.55
2022-12-19T21:46:57.229Z,89.24
2022-12-19T21:49:26.940Z,89.64
2022-12-19T21:51:56.274Z,89.71
2022-12-19T21:54:25.831Z,89.81
2022-12-19T21:56:55.144Z,89.22
2022-12-19T21:59:24.722Z,88.88
2022-12-19T22:01:55.735Z,89.94
2022-12-19T22:04:27.514Z,90.21
2022-12-19T22:06:56.841Z,89.69
2022-12-19T22:09:27.319Z,89.97
2022-12-19T22:11:56.614Z,89.83
2022-12-19T22:14:26.317Z,89.84
2022-12-19T22:16:56.985Z,89.65
2022-12-19T22:19:26.611Z,89.86
2022-12-19T22:21:55.989Z,90.01
2022-12-19T22:24:25.688Z,90.53
2022-12-19T22:26:54.951Z,90.59
2022-12-19T22:29:24.995Z,90.67
2022-12-19T22:31:55.819Z,90.78
2022-12-19T22:34:25.473Z,90.37
2022-12-19T22:36:54.783Z,90.70
2022-12-19T22:39:24.605Z,90.79
2022-12-19T22:41:54.027Z,91.25
2022-12-19T22:44:25.513Z,91.08
2022-12-19T22:46:56.192Z,91.50
2022-12-19T22:49:25.906Z,91.11
2022-12-19T22:51:55.270Z,90.98
2022-12-19T22:54:24.807Z,91.35
2022-12-19T22:56:54.111Z,91.49
2022-12-19T22:59:23.719Z,91.46
2022-12-19T23:01:54.160Z,91.41
2022-12-19T23:04:25.475Z,91.74
2022-12-19T23:06:54.863Z,92.05
2022-12-19T23:09:24.619Z,91.81
2022-12-19T23:11:54.068Z,91.24
2022-12-19T23:14:24.029Z,91.45
2022-12-19T23:16:53.381Z,91.76
2022-12-19T23:19:24.527Z,91.51
2022-12-19T23:21:53.809Z,91.86
2022-12-19T23:24:23.445Z,91.70
2022-12-19T23:26:55.558Z,91.39
2022-12-19T23:29:25.602Z,91.24
2022-12-19T23:31:54.888Z,91.63
2022-12-19T23:34:25.928Z,90.87
2022-12-19T23:37:11.868Z,90.80
2022-12-19T23:39:42.059Z,91.18
2022-12-19T23:42:11.376Z,90.92
2022-12-19T23:44:40.942Z,91.07
2022-12-19T23:47:10.427Z,91.23
2022-12-19T23:49:41.476Z,91.46
2022-12-19T23:52:10.983Z,91.46
2022-12-19T23:54:40.678Z,90.80
2022-12-19T23:57:09.971Z,90.21
2022-12-19T23:59:39.610Z,90.10
